Aeroporto :
LOGIN :

Iscrizione | Disclaimer

   EN    FR    IT 

 










Sommario :    VFR   VFR Marginale   IFR   IFR Intensivo   IFR Molto Intensivo
Visibilità : 
Base nubi : 
>= 8 km
>= 3000ft
5 / 8 km
1000 / 3000 ft
1500m / 5 km
500 / 1000 ft
800 / 1500m
200 / 500 ft
< 800m
< 200 ft
Simboli :   Temporali  Nebbia  Neve Forte  Precipitazioni Forti  Vento > 20 kt
SIGMETs :   Varie  Temporali  Ghiacco  Turbolenza  Onda orograficha  Ceneri Vulcaniche







- Altitudine del aeroporto : 327 ft
- Codice IATA : BHX
- Carte del aeroporto


EGBB - Birmingham

ULTIMO METAR :
  • 250820Z 36006KT 1400 R33/P1500 RA OVC004 12/12 Q1018

METARs OBSOLETI :
  • 250750Z 36004KT 300V040 3000 -RA OVC005 11/11 Q1018
  • 250720Z 34007KT 2000 -RA BKN004 11/11 Q1018
  • 250650Z 34010KT 2000 -RA OVC004 11/11 Q1018 RERA
  • 250620Z 35008KT 2300 -RA OVC005 11/11 Q1019
  • 250550Z 36009KT 4000 BR OVC007 11/10 Q1019

TAF AMD TAF EGBB
Valido dal 25 a 08 ore il 26 a 06 ore UTC


250814Z 2508/2606 01007KT 5000 -RA BKN005
TEMPO 2508/2512 3000 SHRA BR
PROB30
TEMPO 2508/2512 1400 +SHRA BKN003
BECMG 2512/2515 9999 NSW FEW010 SCT025
PROB40
TEMPO 2515/2524 8000 BKN014
BECMG 2600/2603 4000 BR BKN004
PROB40 2601/2606 1200 BKN001
ATIS : +44 121 780 0910
Nessun NOTAM noto per questo aeroporto.



MetMap, La meteo Aeronautica in un colpo d'occhio ! - Copyright ORBIFLY Dicembre 2007 - Disclaimer

ORBIFLY MET'MAP TEAM :

Programmazione e sviluppo : Alexandra Zaïnal
Concezione e sviluppo : Baudouin d'Aumeries
Co-Programmazione e sviluppo : Marc-Olivier Méhu
Supporto tecnico e logistico : Manuel Goepfert
Aiuto per la traduzione : Arnaldo La Scala

Contatto : metmap@orbifly.com




FONTI E CREDITI :

   NOAA